Time;durP1;ratioP1;P1;durP2;ratioP2;P2;SDS_P1;SDS_P2;PMS_P1;PMS_P2;Temp;Humidity;BMP_temperature;BMP_pressure;BME280_temperature;BME280_humidity;BME280_pressure;Samples;Min_cycle;Max_cycle;Signal;HPM_P1;HPM_P2
2022/05/18 00:00:28;;;;;;;0.50;0.50;;;14.90;99.90;;;;;;4994044;28;20216;-76
2022/05/18 00:02:59;;;;;;;0.40;0.40;;;14.90;99.90;;;;;;5028071;22;20194;-82
2022/05/18 00:05:25;;;;;;;0.40;0.40;;;14.90;99.90;;;;;;5007888;28;20177;-82
2022/05/18 00:07:51;;;;;;;0.50;0.50;;;14.90;99.90;;;;;;5007192;28;20333;-83
2022/05/18 00:10:19;;;;;;;0.43;0.43;;;14.80;99.90;;;;;;5008071;28;20211;-81
2022/05/18 00:12:47;;;;;;;0.40;0.40;;;14.80;1.00;;;;;;5005936;28;20193;-83
2022/05/18 00:15:15;;;;;;;0.40;0.40;;;14.80;1.00;;;;;;5009800;28;20191;-82
2022/05/18 00:17:40;;;;;;;0.33;0.33;;;14.70;1.00;;;;;;5011412;28;20172;-79
2022/05/18 00:20:07;;;;;;;0.30;0.30;;;14.70;1.00;;;;;;5016318;28;20169;-80
2022/05/18 00:22:33;;;;;;;0.33;0.33;;;14.60;1.00;;;;;;5005225;28;20221;-80
2022/05/18 00:25:01;;;;;;;0.40;0.40;;;14.50;1.00;;;;;;4981723;28;20241;-81
2022/05/18 00:27:27;;;;;;;0.40;0.40;;;14.60;1.00;;;;;;4980983;28;20245;-80
2022/05/18 00:29:52;;;;;;;0.40;0.40;;;14.50;1.00;;;;;;4985485;28;20174;-81
2022/05/18 00:32:18;;;;;;;0.30;0.30;;;14.50;1.00;;;;;;4987845;28;20198;-81
2022/05/18 00:34:43;;;;;;;0.40;0.40;;;14.50;1.00;;;;;;4988057;28;20178;-80
2022/05/18 00:37:09;;;;;;;0.40;0.40;;;14.50;1.00;;;;;;4988840;28;20181;-81
2022/05/18 00:39:34;;;;;;;0.50;0.50;;;14.50;1.00;;;;;;4988716;28;20188;-81
2022/05/18 00:42:00;;;;;;;0.40;0.40;;;14.50;1.00;;;;;;4989065;28;20208;-80
2022/05/18 00:44:25;;;;;;;0.40;0.40;;;14.40;1.00;;;;;;4988816;28;20205;-79
2022/05/18 00:46:51;;;;;;;0.40;0.40;;;14.30;1.00;;;;;;4982675;28;20209;-80
2022/05/18 00:49:17;;;;;;;0.40;0.40;;;14.30;1.00;;;;;;4981894;28;20749;-80
2022/05/18 00:51:48;;;;;;;0.30;0.30;;;14.30;1.00;;;;;;4982324;28;20197;-80
2022/05/18 00:54:27;;;;;;;0.30;0.30;;;14.30;1.00;;;;;;4982618;28;20194;-80
2022/05/18 00:56:55;;;;;;;0.30;0.30;;;14.30;1.00;;;;;;4982524;28;20241;-80
2022/05/18 00:59:48;;;;;;;0.43;0.43;;;14.20;1.00;;;;;;4996296;28;20213;-79
2022/05/18 01:02:14;;;;;;;0.50;0.50;;;14.20;1.00;;;;;;5001598;28;20232;-78
2022/05/18 01:04:43;;;;;;;0.50;0.50;;;14.20;1.00;;;;;;5003777;28;20261;-80
2022/05/18 01:07:19;;;;;;;0.40;0.40;;;14.10;1.00;;;;;;5003472;28;20208;-80
2022/05/18 01:09:46;;;;;;;0.40;0.40;;;14.10;1.00;;;;;;5001491;28;20264;-80
2022/05/18 01:12:15;;;;;;;0.40;0.40;;;14.10;1.00;;;;;;5000958;28;20204;-81
2022/05/18 01:14:56;;;;;;;0.43;0.43;;;14.10;1.00;;;;;;5000869;28;20191;-81
2022/05/18 01:17:25;;;;;;;0.57;0.57;;;14.00;1.00;;;;;;5000863;28;20181;-81
2022/05/18 01:19:53;;;;;;;0.40;0.40;;;14.00;1.00;;;;;;5000474;28;20177;-80
2022/05/18 01:22:36;;;;;;;0.50;0.50;;;14.00;1.00;;;;;;5000519;28;20655;-81
2022/05/18 01:25:08;;;;;;;0.57;0.57;;;13.90;1.00;;;;;;5001358;28;20236;-80
2022/05/18 01:27:34;;;;;;;0.40;0.40;;;13.90;1.00;;;;;;5000818;28;20208;-80
2022/05/18 01:30:00;;;;;;;0.40;0.40;;;13.90;1.00;;;;;;5001103;28;20184;-80
2022/05/18 01:32:36;;;;;;;0.50;0.50;;;13.80;1.00;;;;;;5001322;28;20536;-81
2022/05/18 01:35:02;;;;;;;0.50;0.50;;;13.80;1.00;;;;;;5001661;28;20191;-80
2022/05/18 01:37:28;;;;;;;0.60;0.60;;;13.70;1.00;;;;;;5002474;28;20559;-80
2022/05/18 01:39:58;;;;;;;0.40;0.40;;;13.70;1.00;;;;;;5001302;28;20208;-80
2022/05/18 01:42:39;;;;;;;0.40;0.40;;;13.60;1.00;;;;;;5002790;28;20201;-80
2022/05/18 01:45:05;;;;;;;0.40;0.40;;;13.60;1.00;;;;;;5002121;28;20181;-82
2022/05/18 01:47:35;;;;;;;0.40;0.40;;;13.60;1.00;;;;;;5002230;28;20223;-80
2022/05/18 01:50:05;;;;;;;0.50;0.50;;;13.60;1.00;;;;;;5002354;28;20177;-79
2022/05/18 01:52:32;;;;;;;0.60;0.60;;;13.60;1.00;;;;;;5002519;28;20234;-80
2022/05/18 01:54:59;;;;;;;0.50;0.50;;;13.50;1.00;;;;;;5002317;28;20268;-81
2022/05/18 01:57:24;;;;;;;0.40;0.40;;;13.50;1.00;;;;;;5002977;28;20181;-80
2022/05/18 01:59:50;;;;;;;0.47;0.47;;;13.50;1.00;;;;;;4983584;28;20205;-81
2022/05/18 02:02:16;;;;;;;0.43;0.43;;;13.50;1.00;;;;;;4983839;28;20202;-80
2022/05/18 02:04:42;;;;;;;0.47;0.47;;;13.40;1.00;;;;;;4983722;28;20193;-80
2022/05/18 02:07:08;;;;;;;0.50;0.50;;;13.30;1.00;;;;;;4984075;28;20213;-80
2022/05/18 02:09:34;;;;;;;0.40;0.40;;;13.30;1.00;;;;;;4984288;28;20173;-79
2022/05/18 02:12:00;;;;;;;0.40;0.40;;;13.30;1.00;;;;;;4983331;28;20249;-81
2022/05/18 02:14:26;;;;;;;0.30;0.30;;;13.20;1.00;;;;;;4982910;28;20208;-81
2022/05/18 02:16:52;;;;;;;0.40;0.40;;;13.20;1.00;;;;;;4983836;28;20185;-81
2022/05/18 02:19:17;;;;;;;0.40;0.40;;;13.20;1.00;;;;;;4981807;28;20173;-81
2022/05/18 02:21:43;;;;;;;0.40;0.40;;;13.30;1.00;;;;;;4982622;28;20289;-80
2022/05/18 02:24:10;;;;;;;0.37;0.37;;;13.30;1.00;;;;;;4981236;28;20265;-81
2022/05/18 02:26:36;;;;;;;0.40;0.40;;;13.30;1.00;;;;;;4982190;28;20214;-80
2022/05/18 02:29:02;;;;;;;0.50;0.50;;;13.20;1.00;;;;;;4981920;28;20178;-79
2022/05/18 02:31:27;;;;;;;0.43;0.43;;;13.10;1.00;;;;;;4982194;28;20268;-81
2022/05/18 02:33:53;;;;;;;0.40;0.40;;;13.10;1.00;;;;;;4982955;28;20220;-80
2022/05/18 02:36:19;;;;;;;0.50;0.50;;;13.10;1.00;;;;;;4982426;28;20492;-81
2022/05/18 02:38:45;;;;;;;0.43;0.43;;;13.10;1.00;;;;;;4983165;28;20269;-80
2022/05/18 02:41:11;;;;;;;0.50;0.50;;;13.10;1.00;;;;;;4982742;28;20194;-79
2022/05/18 02:43:38;;;;;;;0.37;0.37;;;13.00;1.00;;;;;;4983101;28;20188;-81
2022/05/18 02:46:10;;;;;;;0.40;0.40;;;13.00;1.00;;;;;;4982532;28;20185;-81
2022/05/18 02:48:36;;;;;;;0.50;0.50;;;12.90;1.00;;;;;;4982315;28;20204;-80
2022/05/18 02:51:03;;;;;;;0.43;0.43;;;12.90;1.00;;;;;;4983301;28;20253;-80
2022/05/18 02:53:29;;;;;;;0.60;0.60;;;12.90;1.00;;;;;;4984043;28;20182;-79
2022/05/18 02:56:06;;;;;;;0.47;0.47;;;13.00;1.00;;;;;;4984336;28;20181;-79
2022/05/18 02:58:50;;;;;;;0.40;0.40;;;12.90;1.00;;;;;;4990010;28;20165;-80
2022/05/18 03:01:19;;;;;;;0.53;0.53;;;12.80;1.00;;;;;;5005939;28;20203;-79
2022/05/18 03:03:45;;;;;;;0.50;0.50;;;12.80;1.00;;;;;;5007816;28;20193;-80
2022/05/18 03:06:13;;;;;;;0.50;0.50;;;12.80;1.00;;;;;;5008405;28;20201;-79
2022/05/18 03:08:41;;;;;;;0.50;0.50;;;12.80;1.00;;;;;;5009873;28;20228;-80
2022/05/18 03:11:07;;;;;;;0.50;0.50;;;12.70;1.00;;;;;;5010432;28;20265;-80
2022/05/18 03:13:34;;;;;;;0.47;0.47;;;12.80;1.00;;;;;;5010357;28;20485;-80
2022/05/18 03:16:00;;;;;;;0.40;0.40;;;12.70;1.00;;;;;;5010320;28;20177;-80
2022/05/18 03:18:25;;;;;;;0.50;0.50;;;12.70;1.00;;;;;;5007929;28;20184;-80
2022/05/18 03:23:36;;;;;;;0.53;0.53;;;12.60;1.00;;;;;;5007599;28;20271;-81
2022/05/18 03:26:10;;;;;;;0.47;0.47;;;12.60;1.00;;;;;;5005442;28;20189;-81
2022/05/18 03:28:37;;;;;;;0.50;0.50;;;12.60;1.00;;;;;;5000719;28;20741;-81
2022/05/18 03:31:03;;;;;;;0.40;0.40;;;12.60;1.00;;;;;;5000207;28;20200;-80
2022/05/18 03:33:29;;;;;;;0.50;0.50;;;12.60;1.00;;;;;;5007185;28;20177;-80
2022/05/18 03:35:55;;;;;;;0.50;0.50;;;12.50;1.00;;;;;;5007109;28;20185;-80
2022/05/18 03:38:21;;;;;;;0.30;0.30;;;12.50;1.00;;;;;;5006861;28;20181;-80
2022/05/18 03:40:47;;;;;;;0.40;0.40;;;12.50;1.00;;;;;;5006807;28;20197;-80
2022/05/18 03:43:12;;;;;;;0.30;0.30;;;12.40;1.00;;;;;;5007059;28;20193;-80
2022/05/18 03:45:39;;;;;;;0.40;0.40;;;12.40;1.00;;;;;;5007258;28;20700;-81
2022/05/18 03:48:06;;;;;;;0.50;0.50;;;12.40;1.00;;;;;;5007557;28;20530;-80
2022/05/18 03:50:32;;;;;;;0.50;0.50;;;12.40;1.00;;;;;;5005109;28;20237;-80
2022/05/18 03:52:58;;;;;;;0.60;0.60;;;12.40;1.00;;;;;;5005921;28;20653;-80
2022/05/18 03:55:25;;;;;;;0.40;0.40;;;12.50;1.00;;;;;;5006002;28;20177;-79
2022/05/18 03:57:51;;;;;;;0.50;0.50;;;12.40;1.00;;;;;;5004347;28;20264;-80
2022/05/18 04:00:18;;;;;;;0.40;0.40;;;12.40;1.00;;;;;;4986351;28;20216;-80
2022/05/18 04:02:44;;;;;;;0.50;0.50;;;12.40;1.00;;;;;;4988049;28;20209;-79
2022/05/18 04:05:10;;;;;;;0.50;0.50;;;12.50;1.00;;;;;;4988396;28;20181;-80
2022/05/18 04:07:36;;;;;;;0.57;0.57;;;12.50;1.00;;;;;;4988099;28;20213;-80
2022/05/18 04:10:03;;;;;;;0.50;0.50;;;12.50;1.00;;;;;;4987223;28;20181;-79
2022/05/18 04:12:28;;;;;;;0.50;0.50;;;12.60;1.00;;;;;;4986605;28;20265;-81
2022/05/18 04:14:54;;;;;;;0.60;0.60;;;12.60;1.00;;;;;;4985730;28;20663;-80
2022/05/18 04:17:25;;;;;;;0.50;0.50;;;12.70;1.00;;;;;;4986441;28;20208;-80
2022/05/18 04:19:50;;;;;;;0.50;0.50;;;12.80;1.00;;;;;;4985548;28;20201;-81
2022/05/18 04:22:16;;;;;;;0.50;0.50;;;12.80;1.00;;;;;;4985795;28;20225;-80
2022/05/18 04:24:42;;;;;;;0.50;0.50;;;12.90;1.00;;;;;;4985251;28;20182;-79
2022/05/18 04:27:07;;;;;;;0.60;0.60;;;13.00;1.00;;;;;;4986112;28;20213;-80
2022/05/18 04:29:33;;;;;;;0.50;0.50;;;13.10;1.00;;;;;;4985929;28;20205;-81
2022/05/18 04:31:59;;;;;;;0.40;0.40;;;13.20;1.00;;;;;;4986877;28;20221;-80
2022/05/18 04:34:25;;;;;;;0.50;0.50;;;13.30;1.00;;;;;;4987640;28;20174;-81
2022/05/18 04:36:51;;;;;;;0.50;0.50;;;13.40;1.00;;;;;;4986000;28;20186;-80
2022/05/18 04:39:17;;;;;;;0.40;0.40;;;13.40;1.00;;;;;;4985523;28;20201;-79
2022/05/18 04:41:42;;;;;;;0.50;0.50;;;13.30;1.00;;;;;;4985009;28;20208;-81
2022/05/18 04:44:08;;;;;;;0.47;0.47;;;13.30;1.00;;;;;;4985224;28;20181;-82
2022/05/18 04:46:33;;;;;;;0.47;0.47;;;13.30;1.00;;;;;;4984198;28;20208;-80
2022/05/18 04:48:59;;;;;;;0.40;0.40;;;13.40;1.00;;;;;;4984276;28;20215;-82
2022/05/18 04:51:24;;;;;;;0.40;0.40;;;13.50;1.00;;;;;;4998936;28;20198;-80
2022/05/18 04:53:50;;;;;;;0.50;0.50;;;13.50;1.00;;;;;;4984380;28;20177;-81
2022/05/18 04:56:16;;;;;;;0.30;0.30;;;13.50;1.00;;;;;;4984368;28;20379;-81
2022/05/18 04:58:42;;;;;;;0.40;0.40;;;13.60;1.00;;;;;;4993714;28;20179;-80
2022/05/18 05:01:08;;;;;;;0.30;0.30;;;13.70;1.00;;;;;;5004751;28;20205;-81
2022/05/18 05:03:34;;;;;;;0.40;0.40;;;13.90;1.00;;;;;;5004528;28;20631;-81
2022/05/18 05:06:01;;;;;;;0.40;0.40;;;14.20;1.00;;;;;;5004219;28;20190;-81
2022/05/18 05:08:26;;;;;;;0.30;0.30;;;14.30;1.00;;;;;;5004977;28;20248;-81
2022/05/18 05:10:52;;;;;;;0.40;0.40;;;14.40;1.00;;;;;;5003666;28;20693;-80
2022/05/18 05:13:17;;;;;;;0.40;0.40;;;14.60;1.00;;;;;;5003117;28;20189;-80
2022/05/18 05:15:44;;;;;;;0.40;0.40;;;14.70;1.00;;;;;;5002935;28;20181;-81
2022/05/18 05:18:10;;;;;;;0.47;0.47;;;14.80;1.00;;;;;;5007225;28;20177;-80
2022/05/18 05:20:36;;;;;;;0.40;0.40;;;15.00;1.00;;;;;;5005460;28;20181;-82
2022/05/18 05:23:01;;;;;;;0.30;0.30;;;15.10;1.00;;;;;;5004820;28;20180;-81
2022/05/18 05:25:27;;;;;;;0.40;0.40;;;15.30;1.00;;;;;;5008190;28;20181;-81
2022/05/18 05:27:52;;;;;;;0.30;0.30;;;15.30;1.00;;;;;;5009544;28;20237;-81
2022/05/18 05:30:18;;;;;;;0.40;0.40;;;15.60;1.00;;;;;;5008747;28;20578;-80
2022/05/18 05:32:44;;;;;;;0.40;0.40;;;15.80;1.00;;;;;;5009295;28;20280;-82
2022/05/18 05:35:11;;;;;;;0.30;0.30;;;16.10;99.90;;;;;;5008771;28;20173;-82
2022/05/18 05:37:37;;;;;;;0.30;0.30;;;16.20;99.90;;;;;;5010603;28;20207;-82
2022/05/18 05:40:05;;;;;;;0.30;0.30;;;16.20;99.90;;;;;;5012033;28;20173;-82
2022/05/18 05:42:30;;;;;;;0.40;0.40;;;16.10;99.90;;;;;;5008631;28;20264;-81
2022/05/18 05:44:56;;;;;;;0.30;0.30;;;15.90;1.00;;;;;;5006855;28;20184;-81
2022/05/18 05:47:21;;;;;;;0.30;0.30;;;15.90;1.00;;;;;;5006047;28;20247;-81
2022/05/18 05:49:47;;;;;;;0.40;0.40;;;15.90;1.00;;;;;;5005614;28;20496;-80
2022/05/18 05:52:12;;;;;;;0.30;0.30;;;15.90;1.00;;;;;;5006079;28;20247;-81
2022/05/18 05:54:38;;;;;;;0.33;0.33;;;16.00;1.00;;;;;;5006821;28;20203;-81
2022/05/18 05:57:04;;;;;;;0.30;0.30;;;16.10;1.00;;;;;;5006167;28;20205;-81
2022/05/18 05:59:35;;;;;;;0.37;0.37;;;16.10;1.00;;;;;;4990118;28;20209;-80
2022/05/18 06:02:03;;;;;;;0.30;0.30;;;16.50;99.90;;;;;;4993436;28;20238;-78
2022/05/18 06:04:30;;;;;;;0.40;0.40;;;16.90;99.90;;;;;;5097079;22;20225;-77
2022/05/18 06:06:56;;;;;;;0.30;0.30;;;17.20;1.00;;;;;;5008435;28;20192;-76
2022/05/18 06:09:21;;;;;;;0.40;0.40;;;17.50;1.00;;;;;;5018447;28;20272;-76
2022/05/18 06:11:48;;;;;;;0.30;0.30;;;17.60;1.00;;;;;;5012376;28;20272;-77
2022/05/18 06:14:14;;;;;;;0.30;0.30;;;17.50;99.90;;;;;;4999403;28;20184;-78
2022/05/18 06:16:40;;;;;;;0.30;0.30;;;17.70;99.90;;;;;;4994871;28;20270;-78
2022/05/18 06:19:06;;;;;;;0.30;0.30;;;17.70;99.90;;;;;;4993653;28;20201;-76
2022/05/18 06:21:31;;;;;;;0.40;0.40;;;17.80;1.00;;;;;;4992880;28;20197;-77
2022/05/18 06:23:57;;;;;;;0.30;0.30;;;17.80;99.90;;;;;;4992593;28;20650;-76
2022/05/18 06:26:25;;;;;;;0.40;0.40;;;17.90;99.90;;;;;;4992195;28;20184;-75
2022/05/18 06:28:50;;;;;;;0.40;0.40;;;17.90;1.00;;;;;;4990847;28;20193;-75
2022/05/18 06:31:16;;;;;;;0.30;0.30;;;18.00;99.90;;;;;;4992307;28;20198;-77
2022/05/18 06:33:42;;;;;;;0.40;0.40;;;18.00;60.10;;;;;;4992476;28;20185;-77
2022/05/18 06:36:07;;;;;;;0.40;0.40;;;18.10;1.00;;;;;;4992428;28;20169;-76
2022/05/18 06:38:33;;;;;;;0.30;0.30;;;18.10;99.90;;;;;;4992195;28;20192;-76
2022/05/18 06:43:43;;;;;;;0.33;0.33;;;18.40;99.90;;;;;;4981130;28;20668;-74
2022/05/18 06:46:09;;;;;;;0.33;0.33;;;18.70;1.00;;;;;;4986257;28;20189;-73
2022/05/18 06:48:34;;;;;;;0.47;0.47;;;18.80;1.00;;;;;;4988923;28;20209;-73
2022/05/18 06:51:00;;;;;;;0.40;0.40;;;18.90;99.90;;;;;;4989631;28;20688;-72
2022/05/18 06:53:26;;;;;;;0.30;0.30;;;19.00;99.90;;;;;;4991065;28;20227;-74
2022/05/18 06:55:51;;;;;;;0.40;0.40;;;19.30;99.90;;;;;;4990945;28;20185;-75
2022/05/18 06:58:18;;;;;;;0.30;0.30;;;19.40;99.90;;;;;;4986352;28;20550;-75
2022/05/18 07:00:44;;;;;;;0.30;0.30;;;19.40;99.90;;;;;;4991314;28;20284;-73
2022/05/18 07:03:10;;;;;;;0.30;0.30;;;19.40;90.20;;;;;;4991746;28;20208;-75
2022/05/18 07:05:36;;;;;;;0.40;0.40;;;19.60;90.20;;;;;;4992014;28;20311;-74
2022/05/18 07:08:03;;;;;;;0.40;0.40;;;19.80;99.90;;;;;;4991775;28;20701;-74
2022/05/18 07:10:29;;;;;;;0.30;0.30;;;20.10;99.90;;;;;;4991299;28;20208;-75
2022/05/18 07:12:55;;;;;;;0.30;0.30;;;20.50;1.00;;;;;;4992005;28;20213;-75
2022/05/18 07:15:21;;;;;;;0.40;0.40;;;20.60;1.00;;;;;;4991371;28;20955;-74
2022/05/18 07:17:46;;;;;;;0.40;0.40;;;20.70;1.00;;;;;;4991211;28;20216;-74
2022/05/18 07:20:13;;;;;;;0.30;0.30;;;20.70;1.00;;;;;;4990767;28;20181;-74
2022/05/18 07:22:38;;;;;;;0.40;0.40;;;20.70;1.00;;;;;;4991622;28;20201;-74
2022/05/18 07:25:04;;;;;;;0.30;0.30;;;20.70;1.00;;;;;;4991373;28;20680;-74
2022/05/18 07:27:30;;;;;;;0.30;0.30;;;21.00;1.00;;;;;;4991397;28;20217;-76
2022/05/18 07:29:56;;;;;;;0.30;0.30;;;21.20;1.00;;;;;;4991437;28;20531;-75
2022/05/18 07:32:21;;;;;;;0.30;0.30;;;21.50;1.00;;;;;;4989355;28;20683;-74
2022/05/18 07:34:47;;;;;;;0.30;0.30;;;21.60;1.00;;;;;;4988841;28;20709;-74
2022/05/18 07:37:15;;;;;;;0.30;0.30;;;21.90;1.00;;;;;;4985544;28;20182;-74
2022/05/18 07:39:40;;;;;;;0.30;0.30;;;22.10;1.00;;;;;;4988749;28;20190;-78
2022/05/18 07:42:07;;;;;;;0.37;0.37;;;22.30;1.00;;;;;;4991723;28;20193;-76
2022/05/18 07:44:34;;;;;;;0.30;0.30;;;22.80;1.00;;;;;;4991102;28;20639;-77
2022/05/18 07:46:59;;;;;;;0.30;0.30;;;23.20;1.00;;;;;;4994611;28;20201;-77
2022/05/18 07:49:25;;;;;;;0.30;0.30;;;23.50;1.00;;;;;;4994031;28;20203;-76
2022/05/18 07:51:51;;;;;;;0.30;0.30;;;23.90;1.00;;;;;;4991266;28;20411;-78
2022/05/18 07:54:17;;;;;;;0.30;0.30;;;24.50;1.00;;;;;;4992030;28;20232;-77
2022/05/18 07:56:43;;;;;;;0.40;0.40;;;25.20;1.00;;;;;;4994939;28;20173;-77
2022/05/18 07:59:09;;;;;;;0.37;0.37;;;25.70;1.00;;;;;;4994329;28;20173;-77
2022/05/18 08:01:36;;;;;;;0.40;0.40;;;25.70;1.00;;;;;;4994452;28;20201;-77
2022/05/18 08:04:02;;;;;;;0.40;0.40;;;26.00;1.00;;;;;;4994949;28;20189;-73
2022/05/18 08:06:28;;;;;;;0.50;0.50;;;26.50;1.00;;;;;;4994688;28;20204;-74
2022/05/18 08:08:55;;;;;;;0.40;0.40;;;26.70;1.00;;;;;;4994108;28;20810;-74
2022/05/18 08:16:50;;;;;;;0.60;0.60;;;27.40;1.00;;;;;;4994638;28;20200;-77
2022/05/18 08:19:17;;;;;;;0.50;0.50;;;27.40;1.00;;;;;;4974450;28;20185;-76
2022/05/18 08:21:42;;;;;;;0.50;0.50;;;26.80;1.00;;;;;;4987149;28;20255;-76
2022/05/18 08:24:08;;;;;;;0.43;0.43;;;26.90;1.00;;;;;;4992415;28;20538;-76
2022/05/18 08:26:34;;;;;;;0.50;0.50;;;27.40;1.00;;;;;;4994026;28;20206;-76
2022/05/18 08:29:02;;;;;;;0.60;0.60;;;27.80;1.00;;;;;;4992866;28;20189;-75
2022/05/18 08:31:28;;;;;;;0.57;0.57;;;27.90;1.00;;;;;;4993811;28;20201;-74
2022/05/18 08:33:53;;;;;;;0.60;0.60;;;28.20;1.00;;;;;;4994260;28;20180;-76
2022/05/18 08:36:19;;;;;;;0.47;0.47;;;28.00;1.00;;;;;;4994055;28;20181;-76
2022/05/18 08:38:45;;;;;;;0.60;0.60;;;28.00;1.00;;;;;;4993326;28;20185;-76
2022/05/18 08:41:15;;;;;;;0.50;0.50;;;27.60;1.00;;;;;;4989178;28;20201;-77
2022/05/18 08:43:44;;;;;;;0.50;0.50;;;27.70;1.00;;;;;;4993548;28;20315;-77
2022/05/18 08:46:18;;;;;;;0.50;0.50;;;27.10;1.00;;;;;;4993609;28;20646;-77
2022/05/18 08:48:58;;;;;;;0.50;0.50;;;27.20;1.00;;;;;;4993680;28;20286;-76
2022/05/18 08:51:41;;;;;;;0.50;0.50;;;27.20;1.00;;;;;;4993743;28;20288;-77
2022/05/18 08:54:28;;;;;;;0.50;0.50;;;27.70;1.00;;;;;;4993663;28;20181;-76
2022/05/18 08:56:57;;;;;;;0.60;0.60;;;28.10;1.00;;;;;;4977294;28;20177;-76
2022/05/18 08:59:31;;;;;;;0.40;0.40;;;28.10;1.00;;;;;;4993095;28;20196;-76
2022/05/18 09:01:59;;;;;;;0.50;0.50;;;28.20;1.00;;;;;;4993324;28;20282;-76
2022/05/18 09:04:30;;;;;;;0.53;0.53;;;28.20;1.00;;;;;;4993283;28;20272;-77
2022/05/18 09:07:07;;;;;;;0.50;0.50;;;28.20;1.00;;;;;;4993143;28;20248;-75
2022/05/18 09:12:28;;;;;;;0.43;0.43;;;28.20;1.00;;;;;;4993583;28;20271;-76
2022/05/18 09:14:55;;;;;;;0.33;0.33;;;28.40;1.00;;;;;;4993225;28;20181;-76
2022/05/18 09:17:45;;;;;;;0.50;0.50;;;28.60;1.00;;;;;;4992940;28;20378;-76
2022/05/18 09:20:22;;;;;;;0.40;0.40;;;28.20;1.00;;;;;;4992735;28;20279;-77
2022/05/18 09:23:15;;;;;;;0.60;0.60;;;27.60;1.00;;;;;;4992975;28;20658;-76
2022/05/18 09:26:10;;;;;;;0.30;0.30;;;27.30;1.00;;;;;;4973774;28;20173;-75
2022/05/18 09:28:55;;;;;;;0.40;0.40;;;27.50;1.00;;;;;;4985034;28;20221;-77
2022/05/18 09:31:44;;;;;;;0.40;0.40;;;28.00;1.00;;;;;;4990714;28;20690;-75
2022/05/18 09:34:36;;;;;;;0.40;0.40;;;28.20;1.00;;;;;;4984409;28;20643;-74
2022/05/18 09:37:37;;;;;;;0.40;0.40;;;28.00;1.00;;;;;;4989844;28;20192;-75
2022/05/18 09:40:26;;;;;;;0.43;0.43;;;28.10;1.00;;;;;;4989823;28;20642;-76
2022/05/18 09:42:58;;;;;;;0.50;0.50;;;28.50;1.00;;;;;;4991399;28;20721;-74
2022/05/18 09:45:29;;;;;;;0.40;0.40;;;28.60;1.00;;;;;;4992167;28;20177;-76
2022/05/18 09:47:59;;;;;;;0.50;0.50;;;28.50;1.00;;;;;;4990693;28;20630;-74
2022/05/18 09:50:26;;;;;;;0.50;0.50;;;28.60;1.00;;;;;;4990788;28;20260;-75
2022/05/18 09:52:53;;;;;;;0.57;0.57;;;28.60;1.00;;;;;;4991848;28;20258;-75
2022/05/18 09:55:22;;;;;;;0.60;0.60;;;28.30;1.00;;;;;;4992241;28;20228;-75
2022/05/18 09:57:58;;;;;;;0.50;0.50;;;28.60;1.00;;;;;;4991815;28;20200;-75
2022/05/18 10:00:26;;;;;;;0.50;0.50;;;29.20;1.00;;;;;;4990867;28;20273;-75
2022/05/18 10:08:36;;;;;;;0.53;0.53;;;29.10;1.00;;;;;;4991121;28;20216;-74
2022/05/18 10:11:06;;;;;;;0.50;0.50;;;29.00;1.00;;;;;;4991521;28;20197;-75
2022/05/18 10:13:35;;;;;;;0.60;0.60;;;29.30;1.00;;;;;;4991869;28;20196;-76
2022/05/18 10:16:14;;;;;;;0.60;0.60;;;29.30;1.00;;;;;;4992212;28;20180;-74
2022/05/18 10:18:52;;;;;;;0.50;0.50;;;29.50;1.00;;;;;;4992283;28;20505;-76
2022/05/18 10:21:25;;;;;;;0.60;0.60;;;29.90;1.00;;;;;;4992149;28;20272;-75
2022/05/18 10:23:58;;;;;;;0.50;0.50;;;29.40;1.00;;;;;;4992283;28;20177;-77
2022/05/18 10:26:38;;;;;;;0.70;0.70;;;29.10;1.00;;;;;;4991844;28;20192;-77
2022/05/18 10:29:21;;;;;;;0.37;0.37;;;28.80;1.00;;;;;;4991422;28;20267;-75
2022/05/18 10:32:02;;;;;;;0.50;0.50;;;28.50;1.00;;;;;;4992137;28;20291;-75
2022/05/18 10:34:33;;;;;;;0.30;0.30;;;28.80;1.00;;;;;;4991460;28;20169;-74
2022/05/18 10:37:02;;;;;;;0.47;0.47;;;29.00;1.00;;;;;;4989382;28;20173;-75
2022/05/18 10:39:32;;;;;;;0.40;0.40;;;28.90;1.00;;;;;;4991203;28;20184;-75
2022/05/18 10:41:58;;;;;;;0.43;0.43;;;28.80;1.00;;;;;;4989051;28;20283;-74
2022/05/18 10:44:32;;;;;;;0.33;0.33;;;28.40;1.00;;;;;;4991393;28;20259;-74
2022/05/18 10:47:29;;;;;;;0.40;0.40;;;28.90;1.00;;;;;;4989008;28;20639;-77
2022/05/18 10:50:37;;;;;;;0.50;0.50;;;29.50;1.00;;;;;;4991556;28;20177;-75
2022/05/18 10:53:17;;;;;;;0.43;0.43;;;30.00;1.00;;;;;;4969733;28;20182;-76
2022/05/18 10:55:58;;;;;;;0.50;0.50;;;30.40;1.00;;;;;;4990446;28;20240;-76
2022/05/18 10:58:34;;;;;;;0.40;0.40;;;29.80;1.00;;;;;;4985566;28;20169;-76
2022/05/18 11:01:08;;;;;;;0.50;0.50;;;29.70;1.00;;;;;;4972096;28;20224;-75
2022/05/18 11:03:57;;;;;;;0.47;0.47;;;29.60;1.00;;;;;;4972387;28;20193;-75
2022/05/18 11:06:31;;;;;;;0.50;0.50;;;29.60;1.00;;;;;;4972532;28;20182;-76
2022/05/18 11:09:00;;;;;;;0.60;0.60;;;29.90;1.00;;;;;;4971652;28;20675;-76
2022/05/18 11:11:52;;;;;;;0.47;0.47;;;30.40;1.00;;;;;;4971909;28;20613;-77
2022/05/18 11:14:24;;;;;;;0.43;0.43;;;30.50;1.00;;;;;;4972299;28;20181;-76
2022/05/18 11:16:59;;;;;;;0.40;0.40;;;29.90;1.00;;;;;;4972163;28;20243;-76
2022/05/18 11:19:43;;;;;;;0.30;0.30;;;29.60;1.00;;;;;;4972005;28;20177;-76
2022/05/18 11:22:29;;;;;;;0.50;0.50;;;29.50;1.00;;;;;;4975844;28;20198;-76
2022/05/18 11:25:20;;;;;;;0.40;0.40;;;29.60;1.00;;;;;;4975930;28;20658;-77
2022/05/18 11:28:14;;;;;;;0.47;0.47;;;29.60;1.00;;;;;;4975929;28;20232;-76
2022/05/18 11:30:52;;;;;;;0.50;0.50;;;29.70;1.00;;;;;;4973888;28;20599;-76
2022/05/18 11:33:42;;;;;;;0.60;0.60;;;29.30;1.00;;;;;;4975799;28;20182;-75
2022/05/18 11:36:32;;;;;;;0.43;0.43;;;29.30;1.00;;;;;;4975744;28;20181;-76
2022/05/18 11:39:33;;;;;;;0.40;0.40;;;29.30;1.00;;;;;;4975144;28;20324;-75
2022/05/18 11:42:10;;;;;;;0.53;0.53;;;28.80;1.00;;;;;;4975808;28;20213;-75
2022/05/18 11:44:39;;;;;;;0.50;0.50;;;28.80;1.00;;;;;;4979900;28;20185;-73
2022/05/18 11:47:23;;;;;;;0.50;0.50;;;29.10;1.00;;;;;;4991706;28;20215;-75
2022/05/18 11:50:14;;;;;;;0.47;0.47;;;29.50;1.00;;;;;;4992044;28;20216;-74
2022/05/18 11:53:07;;;;;;;0.33;0.33;;;29.50;1.00;;;;;;4992482;28;20895;-75
2022/05/18 11:56:00;;;;;;;0.40;0.40;;;29.20;1.00;;;;;;4989180;28;20185;-75
2022/05/18 11:58:49;;;;;;;0.50;0.50;;;29.30;1.00;;;;;;4991095;28;20185;-76
2022/05/18 12:01:43;;;;;;;0.30;0.30;;;29.10;1.00;;;;;;4991101;28;20713;-77
2022/05/18 12:04:38;;;;;;;0.40;0.40;;;29.10;1.00;;;;;;4987436;28;20204;-77
2022/05/18 12:07:31;;;;;;;0.50;0.50;;;29.30;1.00;;;;;;4938879;28;20583;-78
2022/05/18 12:10:29;;;;;;;0.30;0.30;;;29.40;1.00;;;;;;4993365;28;20176;-76
2022/05/18 12:13:32;;;;;;;0.37;0.37;;;29.30;1.00;;;;;;4989901;28;20277;-74
2022/05/18 12:16:18;;;;;;;0.30;0.30;;;29.60;1.00;;;;;;4990701;28;20189;-75
2022/05/18 12:18:56;;;;;;;0.50;0.50;;;29.90;1.00;;;;;;4992005;28;20247;-75
2022/05/18 12:21:35;;;;;;;0.50;0.50;;;29.70;1.00;;;;;;4993282;28;20508;-76
2022/05/18 12:24:04;;;;;;;0.40;0.40;;;29.50;1.00;;;;;;5000819;28;20173;-76
2022/05/18 12:29:11;;;;;;;0.50;0.50;;;29.90;1.00;;;;;;5006652;23;20605;-83
2022/05/18 12:31:38;;;;;;;0.40;0.40;;;29.80;1.00;;;;;;4984515;28;20714;-81
2022/05/18 12:34:11;;;;;;;0.30;0.30;;;29.50;1.00;;;;;;4991438;28;20177;-82
2022/05/18 12:36:57;;;;;;;0.60;0.60;;;29.40;1.00;;;;;;4989387;28;20562;-79
2022/05/18 12:39:22;;;;;;;0.30;0.30;;;29.50;1.00;;;;;;4987011;28;20177;-79
2022/05/18 12:41:54;;;;;;;0.50;0.50;;;29.50;1.00;;;;;;4987714;28;20567;-80
2022/05/18 12:44:43;;;;;;;0.40;0.40;;;29.50;1.00;;;;;;4992023;28;20185;-80
2022/05/18 12:47:27;;;;;;;0.40;0.40;;;29.50;1.00;;;;;;4992107;28;20221;-79
2022/05/18 12:50:16;;;;;;;0.40;0.40;;;29.50;1.00;;;;;;4986168;28;20190;-79
2022/05/18 12:52:53;;;;;;;0.53;0.53;;;29.50;1.00;;;;;;5001676;28;20225;-81
2022/05/18 12:55:31;;;;;;;0.60;0.60;;;29.70;1.00;;;;;;4994594;28;20264;-82
2022/05/18 12:58:08;;;;;;;0.60;0.60;;;29.50;1.00;;;;;;4985705;28;20268;-82
2022/05/18 13:01:01;;;;;;;0.60;0.60;;;29.40;1.00;;;;;;4983387;28;20177;-81
2022/05/18 13:03:32;;;;;;;0.60;0.60;;;29.50;1.00;;;;;;4983036;28;20190;-80
2022/05/18 13:05:59;;;;;;;0.50;0.50;;;29.40;1.00;;;;;;4984096;28;20193;-80
2022/05/18 13:08:24;;;;;;;0.50;0.50;;;29.20;1.00;;;;;;4983076;28;20231;-79
2022/05/18 13:11:24;;;;;;;0.50;0.50;;;29.40;1.00;;;;;;4991772;28;20722;-82
2022/05/18 13:13:58;;;;;;;0.30;0.30;;;29.20;1.00;;;;;;4994405;28;20633;-79
2022/05/18 13:16:38;;;;;;;0.40;0.40;;;29.00;1.00;;;;;;4993288;28;20174;-81
2022/05/18 13:19:27;;;;;;;0.50;0.50;;;29.10;1.00;;;;;;4991094;28;20181;-81
2022/05/18 13:22:11;;;;;;;0.50;0.50;;;29.20;1.00;;;;;;4990854;28;20200;-81
2022/05/18 13:24:48;;;;;;;0.50;0.50;;;29.00;1.00;;;;;;4991011;28;20186;-80
2022/05/18 13:27:17;;;;;;;0.50;0.50;;;29.00;1.00;;;;;;4989901;28;20213;-80
2022/05/18 13:29:46;;;;;;;0.50;0.50;;;28.90;1.00;;;;;;4989181;28;20182;-80
2022/05/18 13:32:17;;;;;;;0.50;0.50;;;28.80;1.00;;;;;;4991856;28;20201;-80
2022/05/18 13:34:51;;;;;;;0.50;0.50;;;28.70;1.00;;;;;;4991244;28;20192;-79
2022/05/18 13:37:19;;;;;;;0.50;0.50;;;28.60;1.00;;;;;;4989234;28;20225;-80